createdAt,value
2018-04-10T00:02:45.697Z,27.83
2018-04-10T00:07:50.120Z,29.80
2018-04-10T00:12:53.202Z,28.80
2018-04-10T00:17:57.053Z,28.67
2018-04-10T00:23:01.488Z,27.70
2018-04-10T00:28:06.073Z,28.93
2018-04-10T00:33:09.954Z,29.23
2018-04-10T00:38:13.046Z,29.63
2018-04-10T00:43:16.529Z,29.30
2018-04-10T00:48:21.897Z,31.37
2018-04-10T00:53:36.685Z,28.63
2018-04-10T00:58:41.129Z,28.80
2018-04-10T01:03:45.005Z,30.93
2018-04-10T01:08:49.457Z,33.30
2018-04-10T01:13:52.938Z,31.17
2018-04-10T01:18:57.408Z,32.30
2018-04-10T01:24:02.002Z,31.50
2018-04-10T01:29:05.864Z,30.17
2018-04-10T01:34:09.718Z,29.53
2018-04-10T01:39:12.826Z,29.13
2018-04-10T01:44:17.275Z,31.30
2018-04-10T01:49:21.127Z,32.03
2018-04-10T01:54:24.318Z,29.33
2018-04-10T01:59:28.202Z,32.43
2018-04-10T02:04:32.650Z,29.63
2018-04-10T02:09:36.146Z,33.73
2018-04-10T02:14:41.541Z,33.58
2018-04-10T02:19:45.990Z,31.23
2018-04-10T02:24:50.606Z,31.00
2018-04-10T02:29:54.479Z,30.57
2018-04-10T02:34:58.916Z,31.97
2018-04-10T02:40:03.374Z,27.20
2018-04-10T02:45:07.811Z,30.40
2018-04-10T02:50:11.668Z,33.37
2018-04-10T02:55:16.097Z,31.03
2018-04-10T03:00:20.538Z,28.43
2018-04-10T03:05:24.021Z,30.13
2018-04-10T03:10:27.105Z,31.40
2018-04-10T03:15:30.206Z,30.62
2018-04-10T03:20:33.314Z,32.37
2018-04-10T03:25:36.393Z,27.60
2018-04-10T03:30:40.848Z,31.73
2018-04-10T03:35:44.700Z,32.75
2018-04-10T03:40:47.786Z,27.13
2018-04-10T03:45:50.871Z,25.80
2018-04-10T03:50:55.106Z,27.40
2018-04-10T03:55:58.961Z,26.92
2018-04-10T04:01:02.829Z,26.97
2018-04-10T04:06:05.918Z,25.87
2018-04-10T04:11:10.359Z,27.70
2018-04-10T04:16:31.778Z,26.67
2018-04-10T04:27:33.758Z,30.07
2018-04-10T04:32:38.195Z,29.00
2018-04-10T04:37:42.630Z,26.93
2018-04-10T04:42:47.089Z,29.13
2018-04-10T04:47:51.526Z,28.87
2018-04-10T04:52:55.001Z,31.70
2018-04-10T04:57:59.627Z,32.47
2018-04-10T05:03:02.731Z,27.63
2018-04-10T05:08:06.607Z,31.30
2018-04-10T05:13:11.059Z,30.13
2018-04-10T05:18:14.159Z,29.23
2018-04-10T05:23:17.648Z,25.37
2018-04-10T05:28:22.100Z,26.00
2018-04-10T05:33:25.578Z,26.58
2018-04-10T05:38:30.026Z,26.13
2018-04-10T05:43:34.625Z,27.13
2018-04-10T05:48:38.135Z,26.47
2018-04-10T05:53:41.613Z,27.37
2018-04-10T05:58:45.465Z,24.33
2018-04-10T06:03:48.550Z,25.37
2018-04-10T06:08:52.031Z,25.70
2018-04-10T06:13:55.882Z,27.27
2018-04-10T06:19:00.330Z,24.67
2018-04-10T06:24:04.761Z,25.60
2018-04-10T06:29:08.249Z,25.47
2018-04-10T06:34:12.095Z,23.03
2018-04-10T06:39:15.169Z,24.87
2018-04-10T06:44:19.608Z,22.87
2018-04-10T06:49:23.088Z,21.83
2018-04-10T06:54:26.165Z,18.00
2018-04-10T06:59:30.634Z,22.07
2018-04-10T07:04:33.732Z,19.17
2018-04-10T07:09:37.207Z,22.10
2018-04-10T07:14:41.668Z,20.23
2018-04-10T07:19:44.758Z,17.90
2018-04-10T07:24:47.855Z,17.03
2018-04-10T07:29:51.321Z,17.00
2018-04-10T07:34:54.416Z,17.57
2018-04-10T07:39:58.272Z,14.50
2018-04-10T07:45:01.382Z,15.43
2018-04-10T07:50:05.234Z,14.10
2018-04-10T07:55:09.108Z,15.95
2018-04-10T08:00:13.702Z,14.37
2018-04-10T08:05:16.796Z,16.50
2018-04-10T08:10:21.225Z,15.03
2018-04-10T08:15:25.445Z,12.60
2018-04-10T08:20:29.318Z,11.53
2018-04-10T08:25:33.534Z,11.17
2018-04-10T08:30:36.635Z,10.57
2018-04-10T08:35:40.482Z,10.53
2018-04-10T08:40:43.573Z,11.00
2018-04-10T08:45:46.659Z,10.47
2018-04-10T08:50:51.112Z,9.77
2018-04-10T08:55:55.326Z,10.13
2018-04-10T09:00:59.551Z,8.03
2018-04-10T09:06:03.965Z,9.70
2018-04-10T09:11:08.407Z,7.90
2018-04-10T09:16:12.826Z,7.50
2018-04-10T09:21:16.681Z,8.37
2018-04-10T09:26:19.979Z,6.70
2018-04-10T09:31:23.832Z,6.33
2018-04-10T09:36:28.256Z,6.90
2018-04-10T09:41:32.849Z,10.57
2018-04-10T09:46:36.702Z,5.93
2018-04-10T09:51:40.930Z,5.53
2018-04-10T09:56:44.010Z,3.57
2018-04-10T10:01:47.855Z,4.90
2018-04-10T10:06:50.949Z,4.83
2018-04-10T10:11:54.040Z,3.40
2018-04-10T10:16:57.898Z,4.83
2018-04-10T10:22:01.733Z,4.60
2018-04-10T10:27:06.161Z,4.37
2018-04-10T10:32:10.007Z,4.37
2018-04-10T10:37:13.095Z,4.37
2018-04-10T10:42:16.173Z,4.63
2018-04-10T10:47:20.017Z,3.97
2018-04-10T10:52:23.102Z,4.03
2018-04-10T10:57:26.958Z,4.30
2018-04-10T11:02:30.029Z,4.83
2018-04-10T11:07:33.517Z,4.17
2018-04-10T11:12:37.946Z,3.60
2018-04-10T11:17:42.164Z,4.40
2018-04-10T11:22:45.225Z,3.97
2018-04-10T11:27:49.688Z,6.13
2018-04-10T11:32:53.167Z,4.50
2018-04-10T11:37:56.254Z,5.67
2018-04-10T11:42:59.340Z,4.63
2018-04-10T11:48:03.188Z,5.57
2018-04-10T11:53:06.266Z,4.47
2018-04-10T11:58:10.114Z,7.20
2018-04-10T12:03:13.606Z,5.23
2018-04-10T12:08:17.127Z,4.60
2018-04-10T12:13:21.335Z,3.47
2018-04-10T12:18:25.563Z,5.67
2018-04-10T12:23:29.603Z,4.87
2018-04-10T12:28:33.814Z,3.57
2018-04-10T12:33:38.041Z,3.67
2018-04-10T12:38:41.506Z,3.73
2018-04-10T12:43:44.607Z,3.87
2018-04-10T12:48:48.074Z,2.93
2018-04-10T12:53:51.184Z,4.03
2018-04-10T12:58:55.421Z,4.80
2018-04-10T13:03:58.530Z,3.33
2018-04-10T13:09:01.991Z,3.90
2018-04-10T13:14:05.385Z,6.27
2018-04-10T13:19:08.469Z,4.07
2018-04-10T13:24:12.215Z,2.90
2018-04-10T13:29:15.760Z,2.73
2018-04-10T13:34:19.602Z,1.97
2018-04-10T13:39:22.686Z,1.97
2018-04-10T13:44:26.509Z,3.67
2018-04-10T13:49:29.635Z,1.23
2018-04-10T13:54:34.229Z,3.07
2018-04-10T13:59:37.728Z,1.37
2018-04-10T14:04:40.792Z,1.23
2018-04-10T14:09:46.140Z,3.63
2018-04-10T14:14:49.646Z,3.30
2018-04-10T14:19:53.122Z,4.30
2018-04-10T14:24:56.206Z,8.02
2018-04-10T14:30:01.737Z,10.50
2018-04-10T14:35:05.970Z,7.73
2018-04-10T14:40:09.466Z,5.30
2018-04-10T14:45:13.756Z,6.27
2018-04-10T14:50:17.940Z,4.37
2018-04-10T14:55:22.416Z,4.87
2018-04-10T15:00:26.254Z,3.73
2018-04-10T15:05:30.270Z,4.23
2018-04-10T15:10:35.062Z,4.17
2018-04-10T15:15:39.527Z,4.33
2018-04-10T15:20:43.435Z,3.73
2018-04-10T15:25:47.935Z,2.73
2018-04-10T15:30:51.020Z,4.90
2018-04-10T15:35:54.490Z,3.13
2018-04-10T15:40:57.636Z,2.90
2018-04-10T15:46:02.723Z,2.20
2018-04-10T15:51:05.852Z,4.97
2018-04-10T15:56:08.941Z,2.23
2018-04-10T16:01:13.374Z,2.80
2018-04-10T16:06:16.467Z,4.90
2018-04-10T16:11:19.545Z,4.03
2018-04-10T16:16:23.771Z,2.70
2018-04-10T16:21:26.870Z,3.23
2018-04-10T16:26:29.962Z,16.53
2018-04-10T16:31:33.421Z,5.13
2018-04-10T16:36:37.860Z,3.17
2018-04-10T16:41:42.475Z,3.47
2018-04-10T16:46:45.569Z,3.33
2018-04-10T16:51:48.667Z,3.33
2018-04-10T16:56:52.498Z,2.97
2018-04-10T17:01:55.574Z,3.17
2018-04-10T17:06:59.814Z,3.72
2018-04-10T17:12:03.674Z,4.20
2018-04-10T17:17:06.750Z,5.33
2018-04-10T17:22:11.331Z,2.37
2018-04-10T17:27:15.549Z,2.60
2018-04-10T17:32:19.018Z,4.27
2018-04-10T17:37:22.526Z,4.73
2018-04-10T17:42:26.374Z,4.13
2018-04-10T17:47:29.870Z,2.90
2018-04-10T17:52:34.492Z,6.23
2018-04-10T17:57:37.592Z,3.50
2018-04-10T18:02:40.865Z,5.75
2018-04-10T18:07:45.364Z,3.47
2018-04-10T18:12:48.457Z,3.40
2018-04-10T18:17:52.661Z,3.10
2018-04-10T18:22:55.827Z,5.12
2018-04-10T18:28:00.378Z,3.67
2018-04-10T18:33:03.878Z,4.43
2018-04-10T18:38:06.950Z,2.80
2018-04-10T18:43:10.791Z,3.37
2018-04-10T18:48:13.865Z,3.17
2018-04-10T18:53:16.951Z,4.13
2018-04-10T18:58:21.201Z,6.33
2018-04-10T19:03:25.018Z,9.50
2018-04-10T19:08:29.689Z,9.30
2018-04-10T19:13:34.237Z,8.17
2018-04-10T19:18:37.343Z,7.80
2018-04-10T19:23:40.822Z,8.90
2018-04-10T19:28:45.261Z,10.20
2018-04-10T19:33:49.693Z,7.90
2018-04-10T19:38:53.167Z,9.43
2018-04-10T19:43:56.244Z,8.03
2018-04-10T19:48:59.342Z,7.90
2018-04-10T19:54:03.938Z,9.77
2018-04-10T19:59:07.327Z,10.37
2018-04-10T20:04:11.740Z,8.80
2018-04-10T20:09:15.215Z,9.60
2018-04-10T20:14:19.423Z,9.70
2018-04-10T20:19:24.004Z,7.70
2018-04-10T20:24:28.432Z,11.50
2018-04-10T20:29:33.073Z,12.60
2018-04-10T20:34:37.293Z,10.07
2018-04-10T20:39:42.140Z,9.80
2018-04-10T20:44:45.240Z,10.00
2018-04-10T20:49:48.302Z,10.13
2018-04-10T20:54:52.897Z,10.53
2018-04-10T20:59:56.370Z,11.40
2018-04-10T21:05:00.806Z,13.27
2018-04-10T21:10:05.387Z,11.23
2018-04-10T21:15:08.450Z,9.80
2018-04-10T21:20:11.542Z,8.77
2018-04-10T21:25:16.732Z,9.13
2018-04-10T21:35:29.692Z,6.57
2018-04-10T21:40:32.774Z,4.30
2018-04-10T21:45:37.184Z,4.83
2018-04-10T21:50:40.678Z,4.57
2018-04-10T21:55:43.757Z,3.00
2018-04-10T22:00:47.606Z,3.90
2018-04-10T22:05:50.698Z,2.83
2018-04-10T22:10:53.777Z,3.30
2018-04-10T22:15:57.622Z,3.50
2018-04-10T22:21:02.200Z,3.17
2018-04-10T22:26:06.056Z,2.60
2018-04-10T22:31:09.897Z,2.70
2018-04-10T22:36:14.315Z,3.20
2018-04-10T22:41:18.160Z,2.87
2018-04-10T22:46:22.592Z,3.13
2018-04-10T22:51:26.855Z,2.93
2018-04-10T22:56:31.271Z,2.80
2018-04-10T23:01:35.518Z,3.83
2018-04-10T23:06:38.597Z,2.97
2018-04-10T23:11:43.055Z,2.90
2018-04-10T23:16:46.547Z,4.13
2018-04-10T23:21:51.002Z,4.67
2018-04-10T23:26:54.511Z,4.37
2018-04-10T23:31:57.794Z,4.53
2018-04-10T23:37:01.655Z,3.83
2018-04-10T23:42:05.876Z,4.33
2018-04-10T23:47:11.238Z,9.60
2018-04-10T23:52:15.739Z,4.37
2018-04-10T23:57:20.180Z,4.60
